sensor_id;sensor_type;location;lat;lon;timestamp;P1;durP1;ratioP1;P2;durP2;ratioP2
69047;SDS011;56119;50.118;8.642;2022-11-03T00:01:40;111.45;;;76.32;;
69047;SDS011;56119;50.118;8.642;2022-11-03T00:04:08;132.75;;;91.65;;
69047;SDS011;56119;50.118;8.642;2022-11-03T00:06:35;107.45;;;69.65;;
69047;SDS011;56119;50.118;8.642;2022-11-03T00:09:02;69.43;;;48.40;;
69047;SDS011;56119;50.118;8.642;2022-11-03T00:11:30;38.97;;;23.33;;
69047;SDS011;56119;50.118;8.642;2022-11-03T00:13:56;29.15;;;15.82;;
69047;SDS011;56119;50.118;8.642;2022-11-03T00:16:22;93.05;;;60.67;;
69047;SDS011;56119;50.118;8.642;2022-11-03T00:18:48;41.42;;;30.35;;
69047;SDS011;56119;50.118;8.642;2022-11-03T00:21:15;43.95;;;28.65;;
69047;SDS011;56119;50.118;8.642;2022-11-03T00:23:42;58.55;;;34.80;;
69047;SDS011;56119;50.118;8.642;2022-11-03T00:26:15;28.20;;;15.82;;
69047;SDS011;56119;50.118;8.642;2022-11-03T00:28:42;34.17;;;18.80;;
69047;SDS011;56119;50.118;8.642;2022-11-03T00:31:09;35.35;;;24.73;;
69047;SDS011;56119;50.118;8.642;2022-11-03T00:33:36;21.52;;;11.98;;
69047;SDS011;56119;50.118;8.642;2022-11-03T00:36:03;12.85;;;6.13;;
69047;SDS011;56119;50.118;8.642;2022-11-03T00:38:29;12.73;;;5.22;;
69047;SDS011;56119;50.118;8.642;2022-11-03T00:40:56;13.18;;;5.78;;
69047;SDS011;56119;50.118;8.642;2022-11-03T00:43:23;12.98;;;5.70;;
69047;SDS011;56119;50.118;8.642;2022-11-03T00:45:49;15.80;;;6.95;;
69047;SDS011;56119;50.118;8.642;2022-11-03T00:48:15;13.10;;;6.10;;
69047;SDS011;56119;50.118;8.642;2022-11-03T00:50:54;16.10;;;6.55;;
69047;SDS011;56119;50.118;8.642;2022-11-03T00:53:20;14.73;;;6.72;;
69047;SDS011;56119;50.118;8.642;2022-11-03T00:55:49;17.27;;;6.32;;
69047;SDS011;56119;50.118;8.642;2022-11-03T00:58:15;17.45;;;6.45;;
69047;SDS011;56119;50.118;8.642;2022-11-03T01:00:41;12.45;;;6.78;;
69047;SDS011;56119;50.118;8.642;2022-11-03T01:03:07;13.65;;;6.55;;
69047;SDS011;56119;50.118;8.642;2022-11-03T01:05:33;13.55;;;6.10;;
69047;SDS011;56119;50.118;8.642;2022-11-03T01:08:17;11.85;;;6.35;;
69047;SDS011;56119;50.118;8.642;2022-11-03T01:10:43;11.93;;;5.75;;
69047;SDS011;56119;50.118;8.642;2022-11-03T01:13:29;12.85;;;6.55;;
69047;SDS011;56119;50.118;8.642;2022-11-03T01:15:55;13.77;;;6.45;;
69047;SDS011;56119;50.118;8.642;2022-11-03T01:18:22;11.52;;;6.18;;
69047;SDS011;56119;50.118;8.642;2022-11-03T01:20:53;12.50;;;6.30;;
69047;SDS011;56119;50.118;8.642;2022-11-03T01:23:19;14.70;;;7.25;;
69047;SDS011;56119;50.118;8.642;2022-11-03T01:25:45;10.45;;;5.65;;
69047;SDS011;56119;50.118;8.642;2022-11-03T01:28:11;12.82;;;6.80;;
69047;SDS011;56119;50.118;8.642;2022-11-03T01:30:37;16.92;;;6.10;;
69047;SDS011;56119;50.118;8.642;2022-11-03T01:33:03;10.88;;;5.65;;
69047;SDS011;56119;50.118;8.642;2022-11-03T01:35:29;9.75;;;5.40;;
69047;SDS011;56119;50.118;8.642;2022-11-03T01:37:55;14.25;;;5.97;;
69047;SDS011;56119;50.118;8.642;2022-11-03T01:40:21;10.35;;;5.53;;
69047;SDS011;56119;50.118;8.642;2022-11-03T01:42:47;11.00;;;5.47;;
69047;SDS011;56119;50.118;8.642;2022-11-03T01:45:13;12.23;;;5.55;;
69047;SDS011;56119;50.118;8.642;2022-11-03T01:47:39;14.07;;;6.00;;
69047;SDS011;56119;50.118;8.642;2022-11-03T01:50:10;12.52;;;6.00;;
69047;SDS011;56119;50.118;8.642;2022-11-03T01:52:39;10.27;;;6.13;;
69047;SDS011;56119;50.118;8.642;2022-11-03T01:55:49;11.07;;;5.38;;
69047;SDS011;56119;50.118;8.642;2022-11-03T01:58:01;11.75;;;5.97;;
69047;SDS011;56119;50.118;8.642;2022-11-03T02:00:28;16.85;;;6.32;;
69047;SDS011;56119;50.118;8.642;2022-11-03T02:02:54;12.70;;;6.05;;
69047;SDS011;56119;50.118;8.642;2022-11-03T02:05:21;11.88;;;5.47;;
69047;SDS011;56119;50.118;8.642;2022-11-03T02:10:14;10.63;;;6.25;;
69047;SDS011;56119;50.118;8.642;2022-11-03T02:12:40;11.23;;;5.82;;
69047;SDS011;56119;50.118;8.642;2022-11-03T02:15:08;11.18;;;5.53;;
69047;SDS011;56119;50.118;8.642;2022-11-03T02:17:35;13.43;;;5.78;;
69047;SDS011;56119;50.118;8.642;2022-11-03T02:20:15;14.73;;;6.43;;
69047;SDS011;56119;50.118;8.642;2022-11-03T02:27:52;9.98;;;5.38;;
69047;SDS011;56119;50.118;8.642;2022-11-03T02:30:19;10.10;;;5.50;;
69047;SDS011;56119;50.118;8.642;2022-11-03T02:32:47;10.65;;;4.95;;
69047;SDS011;56119;50.118;8.642;2022-11-03T02:35:23;7.72;;;4.78;;
69047;SDS011;56119;50.118;8.642;2022-11-03T02:37:54;10.63;;;5.38;;
69047;SDS011;56119;50.118;8.642;2022-11-03T02:40:22;12.43;;;5.22;;
69047;SDS011;56119;50.118;8.642;2022-11-03T02:42:50;13.30;;;5.80;;
69047;SDS011;56119;50.118;8.642;2022-11-03T02:45:17;13.05;;;5.28;;
69047;SDS011;56119;50.118;8.642;2022-11-03T02:47:44;10.93;;;5.13;;
69047;SDS011;56119;50.118;8.642;2022-11-03T02:50:11;12.48;;;5.05;;
69047;SDS011;56119;50.118;8.642;2022-11-03T02:52:44;12.15;;;5.03;;
69047;SDS011;56119;50.118;8.642;2022-11-03T02:57:45;12.68;;;5.15;;
69047;SDS011;56119;50.118;8.642;2022-11-03T03:00:12;12.57;;;5.15;;
69047;SDS011;56119;50.118;8.642;2022-11-03T03:02:50;10.07;;;4.68;;
69047;SDS011;56119;50.118;8.642;2022-11-03T03:05:19;10.07;;;4.85;;
69047;SDS011;56119;50.118;8.642;2022-11-03T03:07:46;10.10;;;4.80;;
69047;SDS011;56119;50.118;8.642;2022-11-03T03:10:16;9.55;;;4.93;;
69047;SDS011;56119;50.118;8.642;2022-11-03T03:12:44;10.95;;;4.50;;
69047;SDS011;56119;50.118;8.642;2022-11-03T03:15:11;10.05;;;4.68;;
69047;SDS011;56119;50.118;8.642;2022-11-03T03:17:47;9.43;;;4.78;;
69047;SDS011;56119;50.118;8.642;2022-11-03T03:22:57;9.52;;;5.05;;
69047;SDS011;56119;50.118;8.642;2022-11-03T03:27:56;16.45;;;5.90;;
69047;SDS011;56119;50.118;8.642;2022-11-03T03:30:22;17.58;;;5.53;;
69047;SDS011;56119;50.118;8.642;2022-11-03T03:32:49;10.18;;;5.18;;
69047;SDS011;56119;50.118;8.642;2022-11-03T03:35:18;11.95;;;4.90;;
69047;SDS011;56119;50.118;8.642;2022-11-03T03:37:46;11.90;;;5.57;;
69047;SDS011;56119;50.118;8.642;2022-11-03T03:40:16;12.32;;;5.13;;
69047;SDS011;56119;50.118;8.642;2022-11-03T03:42:45;12.05;;;5.35;;
69047;SDS011;56119;50.118;8.642;2022-11-03T03:45:12;11.65;;;5.60;;
69047;SDS011;56119;50.118;8.642;2022-11-03T03:47:38;13.35;;;4.93;;
69047;SDS011;56119;50.118;8.642;2022-11-03T03:50:04;12.45;;;5.07;;
69047;SDS011;56119;50.118;8.642;2022-11-03T03:52:30;12.30;;;5.30;;
69047;SDS011;56119;50.118;8.642;2022-11-03T03:54:58;14.77;;;4.88;;
69047;SDS011;56119;50.118;8.642;2022-11-03T03:57:24;8.68;;;4.30;;
69047;SDS011;56119;50.118;8.642;2022-11-03T03:59:52;11.43;;;5.22;;
69047;SDS011;56119;50.118;8.642;2022-11-03T04:02:18;12.48;;;5.28;;
69047;SDS011;56119;50.118;8.642;2022-11-03T04:04:44;12.82;;;5.55;;
69047;SDS011;56119;50.118;8.642;2022-11-03T04:07:10;13.07;;;5.63;;
69047;SDS011;56119;50.118;8.642;2022-11-03T04:09:55;10.35;;;4.80;;
69047;SDS011;56119;50.118;8.642;2022-11-03T04:12:21;11.80;;;5.53;;
69047;SDS011;56119;50.118;8.642;2022-11-03T04:15:08;13.68;;;5.30;;
69047;SDS011;56119;50.118;8.642;2022-11-03T04:17:53;16.60;;;6.13;;
69047;SDS011;56119;50.118;8.642;2022-11-03T04:20:37;12.82;;;5.30;;
69047;SDS011;56119;50.118;8.642;2022-11-03T04:23:22;12.18;;;5.40;;
69047;SDS011;56119;50.118;8.642;2022-11-03T04:25:57;10.43;;;4.90;;
69047;SDS011;56119;50.118;8.642;2022-11-03T04:28:24;13.52;;;5.60;;
69047;SDS011;56119;50.118;8.642;2022-11-03T04:30:51;12.23;;;5.43;;
69047;SDS011;56119;50.118;8.642;2022-11-03T04:33:17;17.50;;;5.38;;
69047;SDS011;56119;50.118;8.642;2022-11-03T04:35:45;10.55;;;5.07;;
69047;SDS011;56119;50.118;8.642;2022-11-03T04:40:37;12.73;;;5.60;;
69047;SDS011;56119;50.118;8.642;2022-11-03T04:43:08;13.32;;;5.43;;
69047;SDS011;56119;50.118;8.642;2022-11-03T04:45:35;9.88;;;4.88;;
69047;SDS011;56119;50.118;8.642;2022-11-03T04:48:05;11.43;;;5.30;;
69047;SDS011;56119;50.118;8.642;2022-11-03T04:50:36;11.77;;;5.07;;
69047;SDS011;56119;50.118;8.642;2022-11-03T04:53:04;10.07;;;4.50;;
69047;SDS011;56119;50.118;8.642;2022-11-03T04:55:33;10.90;;;5.05;;
69047;SDS011;56119;50.118;8.642;2022-11-03T04:57:59;13.10;;;5.30;;
69047;SDS011;56119;50.118;8.642;2022-11-03T05:00:27;11.15;;;4.72;;
69047;SDS011;56119;50.118;8.642;2022-11-03T05:02:53;9.05;;;4.60;;
69047;SDS011;56119;50.118;8.642;2022-11-03T05:05:23;10.10;;;6.00;;
69047;SDS011;56119;50.118;8.642;2022-11-03T05:07:50;16.17;;;5.88;;
69047;SDS011;56119;50.118;8.642;2022-11-03T05:10:18;12.80;;;5.72;;
69047;SDS011;56119;50.118;8.642;2022-11-03T05:12:45;9.82;;;5.35;;
69047;SDS011;56119;50.118;8.642;2022-11-03T05:17:57;10.85;;;4.88;;
69047;SDS011;56119;50.118;8.642;2022-11-03T05:20:25;12.68;;;6.78;;
69047;SDS011;56119;50.118;8.642;2022-11-03T05:22:54;15.02;;;6.45;;
69047;SDS011;56119;50.118;8.642;2022-11-03T05:25:41;15.15;;;5.97;;
69047;SDS011;56119;50.118;8.642;2022-11-03T05:28:41;14.50;;;5.80;;
69047;SDS011;56119;50.118;8.642;2022-11-03T05:30:58;11.80;;;5.45;;
69047;SDS011;56119;50.118;8.642;2022-11-03T05:33:28;12.18;;;5.40;;
69047;SDS011;56119;50.118;8.642;2022-11-03T05:35:56;16.60;;;5.85;;
69047;SDS011;56119;50.118;8.642;2022-11-03T05:38:23;10.75;;;5.68;;
69047;SDS011;56119;50.118;8.642;2022-11-03T05:40:51;13.52;;;5.72;;
69047;SDS011;56119;50.118;8.642;2022-11-03T05:43:17;12.80;;;5.53;;
69047;SDS011;56119;50.118;8.642;2022-11-03T05:45:43;11.63;;;5.50;;
69047;SDS011;56119;50.118;8.642;2022-11-03T05:48:12;12.85;;;5.88;;
69047;SDS011;56119;50.118;8.642;2022-11-03T05:50:38;10.80;;;6.28;;
69047;SDS011;56119;50.118;8.642;2022-11-03T05:55:50;14.15;;;5.70;;
69047;SDS011;56119;50.118;8.642;2022-11-03T05:58:23;13.77;;;5.70;;
69047;SDS011;56119;50.118;8.642;2022-11-03T06:00:50;12.05;;;5.88;;
69047;SDS011;56119;50.118;8.642;2022-11-03T06:03:26;10.40;;;6.05;;
69047;SDS011;56119;50.118;8.642;2022-11-03T06:05:53;14.88;;;6.30;;
69047;SDS011;56119;50.118;8.642;2022-11-03T06:08:24;10.70;;;5.90;;
69047;SDS011;56119;50.118;8.642;2022-11-03T06:10:52;14.55;;;5.97;;
69047;SDS011;56119;50.118;8.642;2022-11-03T06:13:24;12.63;;;6.20;;
69047;SDS011;56119;50.118;8.642;2022-11-03T06:16:00;16.35;;;6.95;;
69047;SDS011;56119;50.118;8.642;2022-11-03T06:18:31;12.48;;;6.32;;
69047;SDS011;56119;50.118;8.642;2022-11-03T06:21:03;11.07;;;6.57;;
69047;SDS011;56119;50.118;8.642;2022-11-03T06:23:31;15.32;;;6.88;;
69047;SDS011;56119;50.118;8.642;2022-11-03T06:25:57;12.52;;;6.65;;
69047;SDS011;56119;50.118;8.642;2022-11-03T06:28:24;18.10;;;5.97;;
69047;SDS011;56119;50.118;8.642;2022-11-03T06:30:51;11.93;;;5.90;;
69047;SDS011;56119;50.118;8.642;2022-11-03T06:35:47;14.00;;;6.72;;
69047;SDS011;56119;50.118;8.642;2022-11-03T06:38:15;10.07;;;5.80;;
69047;SDS011;56119;50.118;8.642;2022-11-03T06:40:42;13.38;;;6.72;;
69047;SDS011;56119;50.118;8.642;2022-11-03T06:43:15;14.52;;;6.50;;
69047;SDS011;56119;50.118;8.642;2022-11-03T06:45:50;12.13;;;6.70;;
69047;SDS011;56119;50.118;8.642;2022-11-03T06:48:20;13.77;;;7.10;;
69047;SDS011;56119;50.118;8.642;2022-11-03T06:50:46;15.48;;;7.65;;
69047;SDS011;56119;50.118;8.642;2022-11-03T06:53:12;14.70;;;7.25;;
69047;SDS011;56119;50.118;8.642;2022-11-03T06:55:44;14.07;;;6.57;;
69047;SDS011;56119;50.118;8.642;2022-11-03T07:00:37;13.65;;;7.72;;
69047;SDS011;56119;50.118;8.642;2022-11-03T07:05:30;14.05;;;6.93;;
69047;SDS011;56119;50.118;8.642;2022-11-03T07:08:09;13.32;;;6.97;;
69047;SDS011;56119;50.118;8.642;2022-11-03T07:10:37;16.00;;;7.38;;
69047;SDS011;56119;50.118;8.642;2022-11-03T07:13:09;19.33;;;7.68;;
69047;SDS011;56119;50.118;8.642;2022-11-03T07:15:35;15.02;;;6.95;;
69047;SDS011;56119;50.118;8.642;2022-11-03T07:18:04;14.63;;;6.97;;
69047;SDS011;56119;50.118;8.642;2022-11-03T07:20:30;11.15;;;6.70;;
69047;SDS011;56119;50.118;8.642;2022-11-03T07:22:56;14.43;;;6.90;;
69047;SDS011;56119;50.118;8.642;2022-11-03T07:25:25;16.42;;;6.38;;
69047;SDS011;56119;50.118;8.642;2022-11-03T07:27:51;15.15;;;7.25;;
69047;SDS011;56119;50.118;8.642;2022-11-03T07:30:22;14.45;;;6.15;;
69047;SDS011;56119;50.118;8.642;2022-11-03T07:32:50;13.80;;;6.55;;
69047;SDS011;56119;50.118;8.642;2022-11-03T07:37:45;18.40;;;6.72;;
69047;SDS011;56119;50.118;8.642;2022-11-03T07:40:13;11.02;;;6.20;;
69047;SDS011;56119;50.118;8.642;2022-11-03T07:42:40;12.82;;;6.07;;
69047;SDS011;56119;50.118;8.642;2022-11-03T07:48:18;16.13;;;6.53;;
69047;SDS011;56119;50.118;8.642;2022-11-03T07:50:48;15.43;;;7.13;;
69047;SDS011;56119;50.118;8.642;2022-11-03T07:53:19;14.02;;;6.60;;
69047;SDS011;56119;50.118;8.642;2022-11-03T07:55:46;17.13;;;7.47;;
69047;SDS011;56119;50.118;8.642;2022-11-03T08:00:44;17.20;;;5.88;;
69047;SDS011;56119;50.118;8.642;2022-11-03T08:03:15;13.07;;;6.65;;
69047;SDS011;56119;50.118;8.642;2022-11-03T08:05:46;13.95;;;4.95;;
69047;SDS011;56119;50.118;8.642;2022-11-03T08:08:12;15.68;;;5.57;;
69047;SDS011;56119;50.118;8.642;2022-11-03T08:10:38;14.05;;;5.47;;
69047;SDS011;56119;50.118;8.642;2022-11-03T08:13:04;11.52;;;5.78;;
69047;SDS011;56119;50.118;8.642;2022-11-03T08:15:30;9.75;;;4.85;;
69047;SDS011;56119;50.118;8.642;2022-11-03T08:17:56;11.98;;;5.28;;
69047;SDS011;56119;50.118;8.642;2022-11-03T08:20:21;14.77;;;5.75;;
69047;SDS011;56119;50.118;8.642;2022-11-03T08:22:47;12.95;;;5.20;;
69047;SDS011;56119;50.118;8.642;2022-11-03T08:25:13;11.00;;;6.05;;
69047;SDS011;56119;50.118;8.642;2022-11-03T08:27:39;11.57;;;5.60;;
69047;SDS011;56119;50.118;8.642;2022-11-03T08:30:05;13.43;;;6.25;;
69047;SDS011;56119;50.118;8.642;2022-11-03T08:32:31;11.73;;;5.35;;
69047;SDS011;56119;50.118;8.642;2022-11-03T08:34:57;12.68;;;6.30;;
69047;SDS011;56119;50.118;8.642;2022-11-03T08:37:23;17.10;;;6.75;;
69047;SDS011;56119;50.118;8.642;2022-11-03T08:39:49;17.48;;;8.05;;
69047;SDS011;56119;50.118;8.642;2022-11-03T08:42:15;13.52;;;6.03;;
69047;SDS011;56119;50.118;8.642;2022-11-03T08:44:41;13.13;;;6.05;;
69047;SDS011;56119;50.118;8.642;2022-11-03T08:47:07;13.60;;;5.95;;
69047;SDS011;56119;50.118;8.642;2022-11-03T08:49:33;14.20;;;6.63;;
69047;SDS011;56119;50.118;8.642;2022-11-03T08:51:59;12.35;;;6.00;;
69047;SDS011;56119;50.118;8.642;2022-11-03T08:54:25;14.65;;;6.57;;
69047;SDS011;56119;50.118;8.642;2022-11-03T08:56:51;9.60;;;5.38;;
69047;SDS011;56119;50.118;8.642;2022-11-03T08:59:17;11.02;;;5.40;;
69047;SDS011;56119;50.118;8.642;2022-11-03T09:01:43;17.20;;;7.47;;
69047;SDS011;56119;50.118;8.642;2022-11-03T09:04:09;11.23;;;6.45;;
69047;SDS011;56119;50.118;8.642;2022-11-03T09:06:35;11.77;;;6.05;;
69047;SDS011;56119;50.118;8.642;2022-11-03T09:09:01;13.82;;;6.18;;
69047;SDS011;56119;50.118;8.642;2022-11-03T09:11:27;15.55;;;6.03;;
69047;SDS011;56119;50.118;8.642;2022-11-03T09:13:53;12.57;;;5.38;;
69047;SDS011;56119;50.118;8.642;2022-11-03T09:16:22;9.25;;;5.50;;
69047;SDS011;56119;50.118;8.642;2022-11-03T09:18:48;14.13;;;5.55;;
69047;SDS011;56119;50.118;8.642;2022-11-03T09:21:14;7.95;;;5.03;;
69047;SDS011;56119;50.118;8.642;2022-11-03T09:23:40;11.05;;;5.40;;
69047;SDS011;56119;50.118;8.642;2022-11-03T09:26:06;11.63;;;5.00;;
69047;SDS011;56119;50.118;8.642;2022-11-03T09:28:32;13.77;;;5.18;;
69047;SDS011;56119;50.118;8.642;2022-11-03T09:30:58;10.30;;;5.18;;
69047;SDS011;56119;50.118;8.642;2022-11-03T09:33:24;13.70;;;5.75;;
69047;SDS011;56119;50.118;8.642;2022-11-03T09:35:50;11.63;;;6.05;;
69047;SDS011;56119;50.118;8.642;2022-11-03T09:38:16;10.10;;;6.03;;
69047;SDS011;56119;50.118;8.642;2022-11-03T09:40:42;12.05;;;6.20;;
69047;SDS011;56119;50.118;8.642;2022-11-03T09:43:08;14.23;;;6.60;;
69047;SDS011;56119;50.118;8.642;2022-11-03T09:45:34;11.82;;;6.10;;
69047;SDS011;56119;50.118;8.642;2022-11-03T09:48:00;12.90;;;5.82;;
69047;SDS011;56119;50.118;8.642;2022-11-03T09:50:26;8.40;;;5.60;;
69047;SDS011;56119;50.118;8.642;2022-11-03T09:52:52;14.93;;;6.03;;
69047;SDS011;56119;50.118;8.642;2022-11-03T09:55:25;12.82;;;6.00;;
69047;SDS011;56119;50.118;8.642;2022-11-03T09:57:53;11.35;;;6.18;;
69047;SDS011;56119;50.118;8.642;2022-11-03T10:00:20;14.25;;;6.47;;
69047;SDS011;56119;50.118;8.642;2022-11-03T10:02:47;10.45;;;6.28;;
69047;SDS011;56119;50.118;8.642;2022-11-03T10:05:14;13.75;;;6.45;;
69047;SDS011;56119;50.118;8.642;2022-11-03T10:07:42;11.18;;;6.05;;
69047;SDS011;56119;50.118;8.642;2022-11-03T10:10:14;17.17;;;8.65;;
69047;SDS011;56119;50.118;8.642;2022-11-03T10:12:40;13.52;;;6.65;;
69047;SDS011;56119;50.118;8.642;2022-11-03T10:17:39;12.27;;;5.95;;
69047;SDS011;56119;50.118;8.642;2022-11-03T10:20:08;9.75;;;5.72;;
69047;SDS011;56119;50.118;8.642;2022-11-03T10:22:35;10.63;;;5.72;;
69047;SDS011;56119;50.118;8.642;2022-11-03T10:27:45;11.07;;;5.28;;
69047;SDS011;56119;50.118;8.642;2022-11-03T10:30:11;10.07;;;4.80;;
69047;SDS011;56119;50.118;8.642;2022-11-03T10:32:37;9.15;;;4.57;;
69047;SDS011;56119;50.118;8.642;2022-11-03T10:35:30;8.23;;;4.60;;
69047;SDS011;56119;50.118;8.642;2022-11-03T10:37:57;10.57;;;4.70;;
69047;SDS011;56119;50.118;8.642;2022-11-03T10:40:42;10.60;;;5.03;;
69047;SDS011;56119;50.118;8.642;2022-11-03T10:43:09;12.60;;;5.18;;
69047;SDS011;56119;50.118;8.642;2022-11-03T10:45:35;12.27;;;5.55;;
69047;SDS011;56119;50.118;8.642;2022-11-03T10:48:03;19.83;;;10.32;;
69047;SDS011;56119;50.118;8.642;2022-11-03T10:50:30;14.05;;;7.15;;
69047;SDS011;56119;50.118;8.642;2022-11-03T10:52:56;12.57;;;6.00;;
69047;SDS011;56119;50.118;8.642;2022-11-03T10:55:23;8.38;;;4.72;;
69047;SDS011;56119;50.118;8.642;2022-11-03T10:57:49;10.40;;;5.28;;
69047;SDS011;56119;50.118;8.642;2022-11-03T11:00:17;8.45;;;4.53;;
69047;SDS011;56119;50.118;8.642;2022-11-03T11:02:47;10.43;;;4.22;;
69047;SDS011;56119;50.118;8.642;2022-11-03T11:05:22;9.63;;;4.32;;
69047;SDS011;56119;50.118;8.642;2022-11-03T11:07:51;10.23;;;4.15;;
69047;SDS011;56119;50.118;8.642;2022-11-03T11:10:19;11.27;;;4.90;;
69047;SDS011;56119;50.118;8.642;2022-11-03T11:13:05;10.38;;;4.60;;
69047;SDS011;56119;50.118;8.642;2022-11-03T11:18:00;10.55;;;4.40;;
69047;SDS011;56119;50.118;8.642;2022-11-03T11:20:36;9.10;;;4.70;;
69047;SDS011;56119;50.118;8.642;2022-11-03T11:28:31;10.35;;;4.80;;
69047;SDS011;56119;50.118;8.642;2022-11-03T11:30:57;9.70;;;4.53;;
69047;SDS011;56119;50.118;8.642;2022-11-03T11:33:24;9.60;;;4.38;;
69047;SDS011;56119;50.118;8.642;2022-11-03T11:41:01;10.48;;;4.50;;
69047;SDS011;56119;50.118;8.642;2022-11-03T11:43:27;8.98;;;4.47;;
69047;SDS011;56119;50.118;8.642;2022-11-03T11:48:38;10.10;;;4.07;;
69047;SDS011;56119;50.118;8.642;2022-11-03T11:51:08;8.95;;;4.70;;
69047;SDS011;56119;50.118;8.642;2022-11-03T11:53:38;7.90;;;4.38;;
69047;SDS011;56119;50.118;8.642;2022-11-03T11:56:04;10.43;;;4.78;;
69047;SDS011;56119;50.118;8.642;2022-11-03T12:01:18;13.25;;;5.32;;
69047;SDS011;56119;50.118;8.642;2022-11-03T12:03:45;12.55;;;5.55;;
69047;SDS011;56119;50.118;8.642;2022-11-03T12:06:12;12.07;;;5.05;;
69047;SDS011;56119;50.118;8.642;2022-11-03T12:08:38;11.35;;;4.97;;
69047;SDS011;56119;50.118;8.642;2022-11-03T12:11:04;11.07;;;4.40;;
69047;SDS011;56119;50.118;8.642;2022-11-03T12:18:56;8.63;;;4.65;;
69047;SDS011;56119;50.118;8.642;2022-11-03T12:24:24;7.93;;;4.00;;
69047;SDS011;56119;50.118;8.642;2022-11-03T12:26:50;12.13;;;4.47;;
69047;SDS011;56119;50.118;8.642;2022-11-03T12:29:16;7.65;;;3.90;;
69047;SDS011;56119;50.118;8.642;2022-11-03T12:31:42;8.57;;;4.18;;
69047;SDS011;56119;50.118;8.642;2022-11-03T12:34:07;11.07;;;4.95;;
69047;SDS011;56119;50.118;8.642;2022-11-03T12:36:33;11.55;;;4.80;;
69047;SDS011;56119;50.118;8.642;2022-11-03T12:38:59;9.00;;;4.28;;
69047;SDS011;56119;50.118;8.642;2022-11-03T12:41:25;9.48;;;4.50;;
69047;SDS011;56119;50.118;8.642;2022-11-03T12:43:52;12.95;;;4.38;;
69047;SDS011;56119;50.118;8.642;2022-11-03T12:46:20;10.88;;;4.65;;
69047;SDS011;56119;50.118;8.642;2022-11-03T12:48:46;9.27;;;4.35;;
69047;SDS011;56119;50.118;8.642;2022-11-03T12:51:13;8.18;;;4.22;;
69047;SDS011;56119;50.118;8.642;2022-11-03T12:53:39;10.43;;;4.50;;
69047;SDS011;56119;50.118;8.642;2022-11-03T12:56:06;9.38;;;5.03;;
69047;SDS011;56119;50.118;8.642;2022-11-03T12:58:32;8.30;;;4.88;;
69047;SDS011;56119;50.118;8.642;2022-11-03T13:00:58;10.68;;;4.30;;
69047;SDS011;56119;50.118;8.642;2022-11-03T13:03:24;12.88;;;4.32;;
69047;SDS011;56119;50.118;8.642;2022-11-03T13:05:50;11.00;;;4.88;;
69047;SDS011;56119;50.118;8.642;2022-11-03T13:08:16;6.65;;;4.07;;
69047;SDS011;56119;50.118;8.642;2022-11-03T13:10:42;13.30;;;5.10;;
69047;SDS011;56119;50.118;8.642;2022-11-03T13:13:08;9.75;;;4.97;;
69047;SDS011;56119;50.118;8.642;2022-11-03T13:15:34;8.95;;;4.97;;
69047;SDS011;56119;50.118;8.642;2022-11-03T13:18:01;9.95;;;4.63;;
69047;SDS011;56119;50.118;8.642;2022-11-03T13:20:27;9.60;;;4.43;;
69047;SDS011;56119;50.118;8.642;2022-11-03T13:22:53;11.20;;;4.70;;
69047;SDS011;56119;50.118;8.642;2022-11-03T13:25:19;10.98;;;5.45;;
69047;SDS011;56119;50.118;8.642;2022-11-03T13:27:48;10.35;;;4.70;;
69047;SDS011;56119;50.118;8.642;2022-11-03T13:30:17;9.45;;;4.40;;
69047;SDS011;56119;50.118;8.642;2022-11-03T13:32:44;12.15;;;5.00;;
69047;SDS011;56119;50.118;8.642;2022-11-03T13:35:10;8.65;;;4.45;;
69047;SDS011;56119;50.118;8.642;2022-11-03T13:37:36;10.57;;;5.10;;
69047;SDS011;56119;50.118;8.642;2022-11-03T13:40:02;8.60;;;4.28;;
69047;SDS011;56119;50.118;8.642;2022-11-03T13:42:28;10.82;;;4.50;;
69047;SDS011;56119;50.118;8.642;2022-11-03T13:44:54;9.82;;;4.80;;
69047;SDS011;56119;50.118;8.642;2022-11-03T13:47:21;10.35;;;4.60;;
69047;SDS011;56119;50.118;8.642;2022-11-03T13:49:47;10.88;;;5.25;;
69047;SDS011;56119;50.118;8.642;2022-11-03T13:52:19;9.38;;;4.75;;
69047;SDS011;56119;50.118;8.642;2022-11-03T13:54:45;10.90;;;5.15;;
69047;SDS011;56119;50.118;8.642;2022-11-03T13:57:11;12.80;;;5.22;;
69047;SDS011;56119;50.118;8.642;2022-11-03T13:59:37;17.40;;;8.18;;
69047;SDS011;56119;50.118;8.642;2022-11-03T14:02:04;14.38;;;6.95;;
69047;SDS011;56119;50.118;8.642;2022-11-03T14:04:30;12.00;;;5.50;;
69047;SDS011;56119;50.118;8.642;2022-11-03T14:06:56;12.75;;;5.90;;
69047;SDS011;56119;50.118;8.642;2022-11-03T14:09:22;11.30;;;5.63;;
69047;SDS011;56119;50.118;8.642;2022-11-03T14:11:48;11.15;;;5.78;;
69047;SDS011;56119;50.118;8.642;2022-11-03T14:14:33;10.93;;;4.75;;
69047;SDS011;56119;50.118;8.642;2022-11-03T14:16:59;11.07;;;5.03;;
69047;SDS011;56119;50.118;8.642;2022-11-03T14:19:25;11.80;;;5.07;;
69047;SDS011;56119;50.118;8.642;2022-11-03T14:21:51;13.60;;;5.55;;
69047;SDS011;56119;50.118;8.642;2022-11-03T14:24:17;10.52;;;5.47;;
69047;SDS011;56119;50.118;8.642;2022-11-03T14:29:17;13.48;;;5.07;;
69047;SDS011;56119;50.118;8.642;2022-11-03T14:31:43;10.85;;;5.22;;
69047;SDS011;56119;50.118;8.642;2022-11-03T14:34:09;11.82;;;5.80;;
69047;SDS011;56119;50.118;8.642;2022-11-03T14:36:35;10.50;;;5.68;;
69047;SDS011;56119;50.118;8.642;2022-11-03T14:39:02;9.18;;;4.97;;
69047;SDS011;56119;50.118;8.642;2022-11-03T14:41:28;8.75;;;4.75;;
69047;SDS011;56119;50.118;8.642;2022-11-03T14:44:13;13.80;;;6.00;;
69047;SDS011;56119;50.118;8.642;2022-11-03T14:46:39;10.52;;;5.20;;
69047;SDS011;56119;50.118;8.642;2022-11-03T14:49:05;8.48;;;4.95;;
69047;SDS011;56119;50.118;8.642;2022-11-03T14:51:31;8.15;;;5.22;;
69047;SDS011;56119;50.118;8.642;2022-11-03T14:53:57;13.05;;;6.35;;
69047;SDS011;56119;50.118;8.642;2022-11-03T14:56:23;15.35;;;7.35;;
69047;SDS011;56119;50.118;8.642;2022-11-03T14:58:49;12.88;;;6.22;;
69047;SDS011;56119;50.118;8.642;2022-11-03T15:01:15;12.15;;;5.65;;
69047;SDS011;56119;50.118;8.642;2022-11-03T15:03:41;14.70;;;5.43;;
69047;SDS011;56119;50.118;8.642;2022-11-03T15:06:08;12.32;;;5.30;;
69047;SDS011;56119;50.118;8.642;2022-11-03T15:08:34;12.27;;;5.43;;
69047;SDS011;56119;50.118;8.642;2022-11-03T15:11:01;13.25;;;6.07;;
69047;SDS011;56119;50.118;8.642;2022-11-03T15:13:27;11.75;;;5.78;;
69047;SDS011;56119;50.118;8.642;2022-11-03T15:15:53;12.15;;;6.63;;
69047;SDS011;56119;50.118;8.642;2022-11-03T15:18:19;14.73;;;6.05;;
69047;SDS011;56119;50.118;8.642;2022-11-03T15:20:45;12.90;;;5.72;;
69047;SDS011;56119;50.118;8.642;2022-11-03T15:23:11;18.00;;;7.15;;
69047;SDS011;56119;50.118;8.642;2022-11-03T15:25:37;12.55;;;6.20;;
69047;SDS011;56119;50.118;8.642;2022-11-03T15:28:03;18.80;;;6.65;;
69047;SDS011;56119;50.118;8.642;2022-11-03T15:30:29;13.55;;;6.50;;
69047;SDS011;56119;50.118;8.642;2022-11-03T15:32:55;13.88;;;6.55;;
69047;SDS011;56119;50.118;8.642;2022-11-03T15:35:21;12.27;;;6.47;;
69047;SDS011;56119;50.118;8.642;2022-11-03T15:37:47;13.35;;;6.35;;
69047;SDS011;56119;50.118;8.642;2022-11-03T15:40:14;14.05;;;6.28;;
69047;SDS011;56119;50.118;8.642;2022-11-03T15:42:40;14.85;;;7.35;;
69047;SDS011;56119;50.118;8.642;2022-11-03T15:45:07;12.80;;;6.57;;
69047;SDS011;56119;50.118;8.642;2022-11-03T15:47:33;12.30;;;6.45;;
69047;SDS011;56119;50.118;8.642;2022-11-03T15:49:59;15.50;;;6.85;;
69047;SDS011;56119;50.118;8.642;2022-11-03T15:52:25;17.55;;;6.70;;
69047;SDS011;56119;50.118;8.642;2022-11-03T15:54:51;13.05;;;6.75;;